Terminal Aerodrome Forecast
Issued by NWS Charleston, SC

Home | Current Version | Previous Version | Text Only | Print | Product List | Glossary On
Versions: 1 2 3 4 5 6 7 8 9 10 11 12 13 14 15 16 17 18 19 20
867
FTUS42 KCHS 241240 AAA
TAFCHS
TAF AMD
KCHS 241240Z 2413/2512 VRB03KT P6SM FEW002 SCT015
     FM241400 22008KT P6SM SCT020
     FM241900 19010KT P6SM SCT035
     FM250800 19003KT 6SM BR SCT004=

USA.gov is the U.S. government's official web portal to all federal, state and local government web resources and services.